Terminal Aerodrome Forecast
Issued by NWS Twin Cities, MN

Home | Current Version | Previous Version | Graphics & Text | Print | Product List | Glossary On
Versions: 1 2 3 4 5 6 7 8 9 10 11 12 13 14 15 16 17 18 19 20
000
FTUS43 KMPX 272300
TAFSTC
TAF
KSTC 272332Z 2800/2824 VRB03KT P6SM SCT040 SCT250
      TEMPO 2810/2813 5SM BR
     FM281500 12007KT P6SM SCT040 OVC150
     FM281800 11007KT 6SM -SHRA BKN020 OVC100=

USA.gov is the U.S. government's official web portal to all federal, state and local government web resources and services.